James Island, South Carolina
Current Conditions -  °F | °C
As of 5:15 AM on Friday 31 Oct 2014 (Local Time) from KJZI Reporting Station
Broken Clouds Broken Clouds  
Wind Chill: 59°   Ceiling: 4400
Heat Index: 59°   Visibility: 10mi
Dew Point: 57°   Wind: 6mph
Humidity: 94%   Direction: 350°N
Pressure: 29.88"   Gusts: NA
Location:  32.7248°N, 79.9608°W
Report Text: KJZI 310915Z AUTO 35005KT 10SM BKN044 15/14 A2988 RMK A02 P000
Loading
Personal Weather Stations






























Interactive Weather Map
Tropical Storm Tracking
New forecast layout! Learn more

10-Day Weather Forecast

Advertisements
Track Severe Weather on mobile